createdAt,value
2018-05-29T00:01:20.121Z,99.90
2018-05-29T00:03:47.861Z,99.90
2018-05-29T00:06:15.582Z,99.90
2018-05-29T00:08:43.263Z,99.90
2018-05-29T00:11:11.723Z,99.90
2018-05-29T00:13:39.420Z,99.90
2018-05-29T00:16:07.907Z,99.90
2018-05-29T00:18:35.619Z,99.90
2018-05-29T00:21:03.311Z,99.90
2018-05-29T00:23:31.055Z,99.90
2018-05-29T00:25:58.745Z,99.90
2018-05-29T00:28:26.463Z,99.90
2018-05-29T00:30:54.143Z,99.90
2018-05-29T00:33:21.874Z,99.90
2018-05-29T00:35:49.566Z,99.90
2018-05-29T00:38:17.280Z,99.90
2018-05-29T00:40:45.731Z,99.90
2018-05-29T00:43:13.449Z,99.90
2018-05-29T00:45:41.883Z,99.90
2018-05-29T00:48:09.608Z,99.90
2018-05-29T00:50:37.295Z,99.90
2018-05-29T00:53:05.116Z,99.90
2018-05-29T00:55:37.773Z,99.90
2018-05-29T00:58:06.250Z,99.90
2018-05-29T01:00:33.940Z,99.90
2018-05-29T01:03:01.680Z,99.90
2018-05-29T01:05:30.240Z,99.90
2018-05-29T01:07:57.947Z,99.90
2018-05-29T01:10:26.497Z,99.90
2018-05-29T01:12:54.187Z,99.90
2018-05-29T01:15:22.667Z,99.90
2018-05-29T01:17:51.131Z,99.90
2018-05-29T01:20:18.847Z,99.90
2018-05-29T01:22:46.555Z,99.90
2018-05-29T01:25:14.278Z,99.90
2018-05-29T01:27:41.978Z,99.90
2018-05-29T01:30:10.897Z,99.90
2018-05-29T01:32:38.755Z,99.90
2018-05-29T01:35:06.486Z,99.90
2018-05-29T01:37:34.970Z,99.90
2018-05-29T01:40:02.723Z,99.90
2018-05-29T01:42:30.408Z,99.90
2018-05-29T01:44:58.110Z,99.90
2018-05-29T01:47:26.592Z,99.90
2018-05-29T01:49:55.100Z,99.90
2018-05-29T01:52:22.801Z,99.90
2018-05-29T01:54:50.504Z,99.90
2018-05-29T01:57:18.206Z,99.90
2018-05-29T01:59:45.917Z,99.90
2018-05-29T02:02:13.594Z,99.90
2018-05-29T02:04:42.068Z,99.90
2018-05-29T02:07:09.801Z,99.90
2018-05-29T02:09:37.713Z,99.90
2018-05-29T02:12:05.448Z,99.90
2018-05-29T02:14:33.165Z,99.90
2018-05-29T02:17:00.863Z,99.90
2018-05-29T02:19:28.610Z,99.90
2018-05-29T02:21:56.307Z,99.90
2018-05-29T02:24:24.066Z,99.90
2018-05-29T02:26:51.756Z,99.90
2018-05-29T02:29:19.445Z,99.90
2018-05-29T02:31:47.139Z,99.90
2018-05-29T02:34:14.869Z,99.90
2018-05-29T02:36:43.317Z,99.90
2018-05-29T02:39:11.797Z,99.90
2018-05-29T02:41:39.525Z,99.90
2018-05-29T02:44:07.325Z,99.90
2018-05-29T02:46:35.074Z,99.90
2018-05-29T02:49:02.761Z,99.90
2018-05-29T02:51:30.558Z,99.90
2018-05-29T02:53:58.436Z,99.90
2018-05-29T02:56:26.141Z,99.90
2018-05-29T02:58:53.836Z,99.90
2018-05-29T03:01:22.338Z,99.90
2018-05-29T03:03:50.805Z,99.90
2018-05-29T03:06:18.471Z,99.90
2018-05-29T03:08:46.956Z,99.90
2018-05-29T03:11:15.407Z,99.90
2018-05-29T03:13:43.096Z,99.90
2018-05-29T03:16:11.577Z,99.90
2018-05-29T03:18:39.317Z,99.90
2018-05-29T03:21:07.033Z,99.90
2018-05-29T03:23:34.719Z,99.90
2018-05-29T03:26:02.462Z,99.90
2018-05-29T03:28:30.143Z,99.90
2018-05-29T03:30:57.861Z,99.90
2018-05-29T03:33:26.327Z,99.90
2018-05-29T03:35:54.033Z,99.90
2018-05-29T03:38:21.727Z,99.90
2018-05-29T03:40:49.463Z,99.90
2018-05-29T03:43:17.148Z,99.90
2018-05-29T03:45:44.912Z,99.90
2018-05-29T03:48:12.616Z,99.90
2018-05-29T03:50:40.407Z,99.90
2018-05-29T03:53:08.881Z,99.90
2018-05-29T03:55:37.364Z,99.90
2018-05-29T03:58:05.807Z,99.90
2018-05-29T04:00:33.785Z,99.90
2018-05-29T04:03:01.510Z,99.90
2018-05-29T04:05:29.251Z,99.90
2018-05-29T04:07:57.717Z,99.90
2018-05-29T04:10:26.204Z,99.90
2018-05-29T04:12:53.876Z,99.90
2018-05-29T04:15:22.383Z,99.90
2018-05-29T04:17:50.108Z,99.90
2018-05-29T04:20:18.789Z,99.90
2018-05-29T04:22:46.514Z,99.90
2018-05-29T04:25:14.205Z,99.90
2018-05-29T04:27:41.937Z,99.90
2018-05-29T04:30:10.044Z,99.90
2018-05-29T04:32:37.779Z,99.90
2018-05-29T04:35:06.039Z,99.90
2018-05-29T04:37:33.753Z,99.90
2018-05-29T04:40:02.253Z,99.90
2018-05-29T04:42:30.026Z,99.90
2018-05-29T04:44:57.733Z,99.90
2018-05-29T04:47:25.427Z,99.90
2018-05-29T04:49:53.155Z,99.90
2018-05-29T04:52:20.892Z,99.90
2018-05-29T04:54:48.731Z,99.90
2018-05-29T04:57:16.471Z,99.90
2018-05-29T04:59:44.186Z,99.90
2018-05-29T05:02:12.671Z,99.90
2018-05-29T05:04:41.123Z,99.90
2018-05-29T05:07:08.838Z,99.90
2018-05-29T05:09:36.558Z,99.90
2018-05-29T05:12:05.036Z,99.90
2018-05-29T05:14:32.930Z,99.90
2018-05-29T05:17:00.616Z,99.90
2018-05-29T05:19:31.836Z,99.90
2018-05-29T05:22:00.316Z,99.90
2018-05-29T05:24:28.929Z,99.90
2018-05-29T05:26:56.667Z,99.90
2018-05-29T05:29:25.160Z,99.90
2018-05-29T05:31:53.176Z,99.90
2018-05-29T05:34:20.880Z,99.90
2018-05-29T05:36:49.354Z,99.90
2018-05-29T05:39:17.081Z,99.90
2018-05-29T05:41:44.788Z,99.90
2018-05-29T05:44:13.293Z,99.90
2018-05-29T05:46:40.984Z,99.90
2018-05-29T05:49:08.715Z,99.90
2018-05-29T05:51:36.612Z,99.90
2018-05-29T05:54:04.296Z,99.90
2018-05-29T05:56:32.008Z,99.90
2018-05-29T05:58:59.728Z,99.90
2018-05-29T06:01:27.463Z,99.90
2018-05-29T06:03:55.960Z,99.90
2018-05-29T06:06:23.684Z,99.90
2018-05-29T06:08:51.405Z,99.90
2018-05-29T06:11:19.076Z,99.90
2018-05-29T06:13:46.797Z,99.90
2018-05-29T06:16:14.501Z,99.90
2018-05-29T06:18:42.254Z,99.90
2018-05-29T06:21:09.990Z,99.90
2018-05-29T06:23:38.471Z,99.90
2018-05-29T06:26:06.317Z,99.90
2018-05-29T06:28:34.820Z,99.90
2018-05-29T06:31:03.295Z,99.90
2018-05-29T06:33:31.049Z,99.90
2018-05-29T06:35:59.505Z,99.90
2018-05-29T06:38:27.232Z,99.90
2018-05-29T06:40:54.956Z,99.90
2018-05-29T06:43:23.762Z,99.90
2018-05-29T06:45:52.220Z,99.90
2018-05-29T06:48:19.938Z,99.90
2018-05-29T06:50:47.710Z,99.90
2018-05-29T06:53:15.426Z,99.90
2018-05-29T06:55:43.879Z,99.90
2018-05-29T06:58:11.609Z,99.90
2018-05-29T07:00:39.310Z,99.90
2018-05-29T07:03:07.035Z,99.90
2018-05-29T07:05:34.742Z,99.90
2018-05-29T07:08:02.445Z,99.90
2018-05-29T07:10:30.138Z,99.90
2018-05-29T07:12:57.865Z,99.90
2018-05-29T07:15:25.591Z,99.90
2018-05-29T07:17:53.320Z,99.90
2018-05-29T07:20:21.046Z,99.90
2018-05-29T07:22:48.736Z,99.90
2018-05-29T07:25:16.464Z,99.90
2018-05-29T07:27:44.172Z,99.90
2018-05-29T07:30:13.390Z,99.90
2018-05-29T07:32:41.140Z,99.90
2018-05-29T07:35:08.860Z,99.90
2018-05-29T07:37:36.554Z,99.90
2018-05-29T07:40:05.051Z,99.90
2018-05-29T07:42:32.749Z,99.90
2018-05-29T07:45:00.502Z,99.90
2018-05-29T07:47:28.807Z,99.90
2018-05-29T07:49:56.530Z,99.90
2018-05-29T07:52:24.390Z,99.90
2018-05-29T07:54:52.105Z,99.90
2018-05-29T07:57:19.842Z,99.90
2018-05-29T07:59:47.562Z,99.90
2018-05-29T08:02:15.260Z,99.90
2018-05-29T08:04:42.995Z,99.90
2018-05-29T08:07:11.517Z,99.90
2018-05-29T08:09:39.258Z,99.90
2018-05-29T08:12:07.075Z,99.90
2018-05-29T08:14:34.796Z,99.90
2018-05-29T08:17:02.522Z,99.90
2018-05-29T08:19:30.226Z,99.90
2018-05-29T08:21:57.900Z,99.90
2018-05-29T08:24:25.618Z,99.90
2018-05-29T08:26:54.135Z,99.90
2018-05-29T08:29:21.946Z,99.90
2018-05-29T08:31:49.615Z,99.90
2018-05-29T08:34:17.346Z,99.90
2018-05-29T08:36:45.909Z,99.90
2018-05-29T08:39:13.643Z,99.90
2018-05-29T08:41:41.334Z,99.90
2018-05-29T08:44:09.072Z,99.90
2018-05-29T08:46:37.558Z,99.90
2018-05-29T08:49:06.027Z,99.90
2018-05-29T08:51:33.737Z,99.90
2018-05-29T08:54:01.442Z,99.90
2018-05-29T08:56:29.162Z,99.90
2018-05-29T08:58:56.829Z,99.90
2018-05-29T09:01:24.568Z,99.90
2018-05-29T09:03:53.057Z,99.90
2018-05-29T09:06:20.789Z,99.90
2018-05-29T09:08:48.569Z,99.90
2018-05-29T09:11:16.266Z,99.90
2018-05-29T09:13:43.956Z,99.90
2018-05-29T09:16:11.729Z,99.90
2018-05-29T09:18:39.410Z,99.90
2018-05-29T09:21:07.149Z,99.90
2018-05-29T09:23:34.869Z,99.90
2018-05-29T09:26:03.381Z,99.90
2018-05-29T09:28:31.823Z,99.90
2018-05-29T09:31:00.392Z,99.90
2018-05-29T09:33:28.084Z,99.90
2018-05-29T09:35:56.508Z,99.90
2018-05-29T09:38:24.253Z,99.90
2018-05-29T09:40:51.987Z,99.90
2018-05-29T09:43:20.440Z,99.90
2018-05-29T09:45:48.994Z,99.90
2018-05-29T09:48:16.666Z,99.90
2018-05-29T09:50:44.885Z,99.90
2018-05-29T09:53:12.708Z,99.90
2018-05-29T09:55:40.446Z,99.90
2018-05-29T09:58:08.164Z,99.90
2018-05-29T10:00:39.734Z,99.90
2018-05-29T10:03:08.267Z,99.90
2018-05-29T10:05:35.967Z,99.90
2018-05-29T10:08:03.704Z,99.90
2018-05-29T10:10:31.460Z,99.90
2018-05-29T10:12:59.167Z,99.90
2018-05-29T10:15:26.866Z,99.90
2018-05-29T10:17:54.593Z,99.90
2018-05-29T10:20:23.072Z,99.90
2018-05-29T10:22:51.872Z,99.90
2018-05-29T10:25:19.574Z,99.90
2018-05-29T10:27:47.298Z,99.90
2018-05-29T10:30:15.056Z,99.90
2018-05-29T10:32:42.756Z,99.90
2018-05-29T10:35:10.482Z,99.90
2018-05-29T10:37:38.253Z,99.90
2018-05-29T10:40:05.931Z,99.90
2018-05-29T10:42:34.528Z,99.90
2018-05-29T10:45:03.095Z,99.90
2018-05-29T10:47:30.786Z,99.90
2018-05-29T10:49:59.143Z,99.90
2018-05-29T10:52:26.844Z,99.90
2018-05-29T10:54:54.542Z,99.90
2018-05-29T10:57:22.315Z,99.80
2018-05-29T10:59:49.999Z,99.90
2018-05-29T11:02:18.491Z,99.90
2018-05-29T11:04:46.949Z,99.90
2018-05-29T11:07:14.817Z,99.90
2018-05-29T11:09:42.522Z,99.80
2018-05-29T11:12:10.323Z,99.50
2018-05-29T11:14:38.096Z,99.90
2018-05-29T11:17:05.812Z,99.90
2018-05-29T11:19:33.571Z,99.90
2018-05-29T11:22:01.333Z,99.90
2018-05-29T11:24:29.060Z,99.90
2018-05-29T11:26:56.796Z,99.90
2018-05-29T11:29:24.585Z,99.90
2018-05-29T11:31:52.368Z,99.90
2018-05-29T11:34:20.327Z,99.90
2018-05-29T11:36:48.307Z,99.70
2018-05-29T11:39:18.488Z,99.90
2018-05-29T11:41:46.419Z,99.90
2018-05-29T11:44:14.268Z,99.90
2018-05-29T11:46:41.994Z,99.90
2018-05-29T11:49:09.771Z,99.90
2018-05-29T11:51:37.922Z,97.90
2018-05-29T11:54:05.813Z,99.50
2018-05-29T11:56:33.556Z,98.80
2018-05-29T11:59:01.390Z,99.90
2018-05-29T12:01:29.091Z,99.80
2018-05-29T12:03:57.741Z,99.20
2018-05-29T12:06:25.445Z,99.20
2018-05-29T12:08:53.159Z,99.40
2018-05-29T12:11:20.873Z,99.40
2018-05-29T12:13:48.600Z,99.60
2018-05-29T12:16:16.286Z,99.50
2018-05-29T12:18:44.396Z,99.90
2018-05-29T12:21:12.196Z,99.90
2018-05-29T12:23:40.718Z,99.90
2018-05-29T12:26:09.338Z,99.90
2018-05-29T12:28:37.054Z,98.80
2018-05-29T12:31:04.804Z,98.80
2018-05-29T12:33:32.501Z,99.10
2018-05-29T12:36:00.321Z,99.30
2018-05-29T12:38:28.492Z,97.90
2018-05-29T12:40:56.293Z,98.20
2018-05-29T12:43:24.024Z,98.20
2018-05-29T12:45:51.782Z,98.50
2018-05-29T12:48:20.302Z,97.70
2018-05-29T12:50:48.794Z,97.50
2018-05-29T12:53:16.606Z,97.50
2018-05-29T12:55:44.360Z,98.10
2018-05-29T12:58:12.052Z,98.10
2018-05-29T13:00:39.760Z,98.30
2018-05-29T13:03:08.241Z,98.50
2018-05-29T13:05:35.977Z,98.50
2018-05-29T13:08:03.749Z,99.00
2018-05-29T13:10:31.464Z,99.20
2018-05-29T13:12:59.158Z,98.70
2018-05-29T13:15:26.876Z,99.30
2018-05-29T13:17:54.577Z,99.00
2018-05-29T13:20:22.291Z,99.40
2018-05-29T13:22:49.990Z,99.90
2018-05-29T13:25:17.760Z,99.90
2018-05-29T13:27:45.521Z,99.90
2018-05-29T13:30:13.210Z,99.90
2018-05-29T13:32:40.897Z,99.90
2018-05-29T13:35:09.443Z,99.90
2018-05-29T13:37:37.137Z,99.90
2018-05-29T13:40:05.664Z,99.90
2018-05-29T13:42:33.360Z,99.90
2018-05-29T13:45:01.085Z,99.90
2018-05-29T13:47:28.903Z,99.90
2018-05-29T13:49:56.626Z,99.90
2018-05-29T13:52:25.470Z,99.90
2018-05-29T13:54:53.305Z,99.90
2018-05-29T13:57:21.048Z,99.90
2018-05-29T13:59:48.802Z,99.90
2018-05-29T14:02:16.548Z,99.90
2018-05-29T14:04:44.575Z,99.90
2018-05-29T14:07:12.314Z,99.90
2018-05-29T14:09:40.069Z,99.90
2018-05-29T14:12:07.801Z,99.90
2018-05-29T14:14:35.551Z,99.90
2018-05-29T14:17:03.266Z,99.90
2018-05-29T14:19:31.096Z,99.90
2018-05-29T14:21:58.835Z,99.90
2018-05-29T14:24:26.568Z,99.90
2018-05-29T14:26:54.657Z,99.90
2018-05-29T14:29:22.407Z,99.90
2018-05-29T14:31:50.544Z,99.90
2018-05-29T14:34:19.106Z,99.90
2018-05-29T14:36:46.819Z,99.90
2018-05-29T14:39:14.591Z,99.90
2018-05-29T14:41:42.297Z,99.90
2018-05-29T14:44:10.085Z,99.90
2018-05-29T14:46:38.475Z,99.90
2018-05-29T14:49:06.960Z,99.90
2018-05-29T14:51:35.088Z,99.90
2018-05-29T14:54:02.802Z,99.90
2018-05-29T14:56:31.272Z,99.90
2018-05-29T14:58:59.769Z,99.90
2018-05-29T15:01:28.273Z,99.90
2018-05-29T15:03:56.005Z,99.90
2018-05-29T15:06:24.506Z,99.90
2018-05-29T15:08:53.021Z,99.90
2018-05-29T15:11:20.908Z,99.90
2018-05-29T15:13:48.899Z,99.90
2018-05-29T15:16:16.667Z,99.90
2018-05-29T15:18:44.400Z,99.90
2018-05-29T15:21:12.152Z,99.90
2018-05-29T15:23:40.489Z,99.90
2018-05-29T15:26:08.216Z,99.90
2018-05-29T15:28:35.898Z,99.90
2018-05-29T15:31:03.654Z,99.90
2018-05-29T15:33:31.387Z,99.90
2018-05-29T15:35:59.151Z,99.90
2018-05-29T15:38:26.845Z,99.90
2018-05-29T15:40:54.586Z,99.90
2018-05-29T15:43:22.309Z,99.90
2018-05-29T15:45:50.430Z,99.90
2018-05-29T15:48:18.149Z,99.90
2018-05-29T15:50:46.651Z,99.90
2018-05-29T15:53:14.343Z,99.90
2018-05-29T15:55:43.079Z,99.90
2018-05-29T15:58:11.581Z,99.90
2018-05-29T16:00:39.340Z,99.90
2018-05-29T16:03:07.815Z,99.90
2018-05-29T16:05:36.318Z,99.90
2018-05-29T16:08:04.147Z,99.90
2018-05-29T16:10:31.856Z,99.90
2018-05-29T16:12:59.643Z,99.90
2018-05-29T16:15:27.392Z,99.90
2018-05-29T16:17:55.090Z,99.90
2018-05-29T16:20:22.863Z,99.90
2018-05-29T16:22:50.635Z,99.90
2018-05-29T16:25:18.457Z,99.90
2018-05-29T16:27:46.218Z,99.90
2018-05-29T16:30:13.933Z,99.90
2018-05-29T16:32:41.700Z,99.90
2018-05-29T16:35:10.319Z,99.90
2018-05-29T16:37:38.809Z,99.90
2018-05-29T16:40:06.725Z,99.90
2018-05-29T16:42:34.461Z,99.90
2018-05-29T16:45:02.190Z,99.90
2018-05-29T16:47:29.973Z,99.90
2018-05-29T16:49:58.441Z,99.90
2018-05-29T16:52:26.183Z,99.90
2018-05-29T16:54:54.667Z,99.90
2018-05-29T16:57:23.187Z,99.90
2018-05-29T16:59:50.919Z,99.90
2018-05-29T17:02:19.441Z,99.90
2018-05-29T17:04:47.200Z,99.90
2018-05-29T17:07:15.702Z,99.90
2018-05-29T17:09:43.440Z,99.90
2018-05-29T17:12:11.899Z,99.90
2018-05-29T17:14:39.609Z,99.90
2018-05-29T17:17:07.375Z,99.90
2018-05-29T17:19:35.072Z,99.90
2018-05-29T17:22:02.843Z,99.90
2018-05-29T17:24:31.339Z,99.90
2018-05-29T17:26:59.844Z,99.90
2018-05-29T17:29:27.551Z,99.90
2018-05-29T17:31:56.206Z,99.90
2018-05-29T17:34:23.940Z,99.90
2018-05-29T17:36:51.692Z,99.90
2018-05-29T17:39:19.397Z,99.90
2018-05-29T17:41:47.142Z,99.90
2018-05-29T17:44:15.386Z,99.90
2018-05-29T17:46:43.116Z,99.90
2018-05-29T17:49:10.859Z,99.90
2018-05-29T17:51:40.225Z,99.90
2018-05-29T17:54:08.708Z,99.90
2018-05-29T17:56:37.079Z,99.90
2018-05-29T17:59:05.302Z,99.90
2018-05-29T18:01:33.794Z,99.90
2018-05-29T18:04:01.612Z,99.90
2018-05-29T18:06:29.575Z,99.90
2018-05-29T18:08:58.695Z,99.90
2018-05-29T18:11:27.158Z,99.90
2018-05-29T18:13:56.182Z,99.90
2018-05-29T18:16:24.934Z,99.90
2018-05-29T18:18:53.115Z,99.90
2018-05-29T18:21:21.742Z,99.90
2018-05-29T18:23:51.000Z,99.90
2018-05-29T18:26:19.069Z,99.90
2018-05-29T18:28:49.658Z,99.90
2018-05-29T18:31:17.421Z,99.90
2018-05-29T18:33:45.253Z,99.90
2018-05-29T18:36:13.636Z,99.90
2018-05-29T18:38:41.365Z,99.90
2018-05-29T18:41:09.253Z,99.90
2018-05-29T18:43:37.260Z,99.90
2018-05-29T18:46:05.742Z,99.90
2018-05-29T18:48:37.140Z,99.90
2018-05-29T18:51:05.978Z,99.90
2018-05-29T18:53:33.857Z,99.90
2018-05-29T18:56:02.339Z,99.90
2018-05-29T18:58:30.908Z,99.90
2018-05-29T19:00:59.794Z,99.90
2018-05-29T19:03:28.479Z,99.90
2018-05-29T19:05:56.068Z,99.90
2018-05-29T19:08:24.687Z,99.90
2018-05-29T19:10:53.187Z,99.90
2018-05-29T19:13:22.759Z,99.90
2018-05-29T19:15:50.985Z,99.90
2018-05-29T19:18:18.867Z,99.90
2018-05-29T19:20:48.473Z,99.90
2018-05-29T19:23:16.433Z,99.90
2018-05-29T19:25:44.310Z,99.90
2018-05-29T19:28:12.062Z,99.90
2018-05-29T19:30:39.817Z,99.90
2018-05-29T19:33:08.221Z,99.90
2018-05-29T19:35:39.553Z,99.90
2018-05-29T19:38:08.816Z,99.90
2018-05-29T19:40:38.029Z,99.90
2018-05-29T19:43:06.148Z,99.90
2018-05-29T19:45:34.094Z,99.90
2018-05-29T19:48:02.266Z,99.90
2018-05-29T19:50:30.134Z,99.90
2018-05-29T19:52:57.902Z,99.90
2018-05-29T19:55:31.335Z,99.90
2018-05-29T19:58:00.917Z,99.90
2018-05-29T20:00:31.203Z,99.90
2018-05-29T20:03:01.492Z,99.90
2018-05-29T20:05:29.935Z,99.90
2018-05-29T20:07:59.648Z,99.90
2018-05-29T20:10:27.428Z,99.90
2018-05-29T20:12:55.177Z,99.90
2018-05-29T20:15:24.368Z,99.90
2018-05-29T20:17:52.550Z,99.90
2018-05-29T20:20:20.419Z,99.90
2018-05-29T20:22:48.168Z,99.90
2018-05-29T20:25:15.942Z,99.90
2018-05-29T20:27:44.130Z,99.90
2018-05-29T20:30:12.496Z,99.90
2018-05-29T20:32:40.281Z,99.90
2018-05-29T20:35:08.038Z,99.90
2018-05-29T20:37:36.104Z,99.90
2018-05-29T20:40:04.094Z,99.90
2018-05-29T20:42:31.861Z,99.90
2018-05-29T20:44:59.827Z,99.90
2018-05-29T20:47:28.581Z,99.90
2018-05-29T20:49:56.327Z,99.90
2018-05-29T20:52:24.629Z,99.90
2018-05-29T20:54:53.285Z,99.90
2018-05-29T20:57:21.052Z,99.90
2018-05-29T20:59:49.580Z,99.90
2018-05-29T21:02:17.557Z,99.90
2018-05-29T21:04:45.312Z,99.90
2018-05-29T21:07:13.118Z,99.90
2018-05-29T21:09:40.869Z,99.90
2018-05-29T21:12:08.643Z,99.90
2018-05-29T21:14:36.418Z,99.90
2018-05-29T21:17:04.928Z,99.90
2018-05-29T21:19:33.756Z,99.90
2018-05-29T21:22:01.604Z,99.90
2018-05-29T21:24:29.345Z,99.90
2018-05-29T21:26:57.147Z,99.90
2018-05-29T21:29:24.996Z,99.90
2018-05-29T21:31:52.706Z,99.90
2018-05-29T21:34:20.425Z,99.90
2018-05-29T21:36:48.121Z,99.90
2018-05-29T21:39:15.855Z,99.90
2018-05-29T21:41:43.554Z,99.90
2018-05-29T21:44:12.060Z,99.90
2018-05-29T21:46:40.542Z,99.90
2018-05-29T21:49:08.291Z,99.90
2018-05-29T21:51:36.003Z,99.90
2018-05-29T21:54:03.731Z,99.90
2018-05-29T21:56:32.222Z,99.90
2018-05-29T21:58:59.935Z,99.90
2018-05-29T22:01:27.674Z,99.90
2018-05-29T22:04:00.967Z,99.90
2018-05-29T22:06:28.677Z,99.90
2018-05-29T22:08:57.428Z,99.90
2018-05-29T22:11:25.301Z,99.90
2018-05-29T22:13:53.446Z,99.90
2018-05-29T22:16:21.614Z,99.90
2018-05-29T22:18:50.473Z,99.90
2018-05-29T22:21:18.140Z,99.90
2018-05-29T22:23:45.935Z,99.90
2018-05-29T22:26:14.424Z,99.90
2018-05-29T22:28:42.147Z,99.90
2018-05-29T22:31:09.891Z,99.90
2018-05-29T22:33:37.599Z,99.90
2018-05-29T22:36:05.342Z,99.90
2018-05-29T22:38:33.060Z,99.90
2018-05-29T22:41:00.784Z,99.90
2018-05-29T22:43:28.458Z,99.90
2018-05-29T22:45:56.158Z,99.90
2018-05-29T22:48:23.888Z,99.90
2018-05-29T22:50:52.434Z,99.90
2018-05-29T22:53:20.257Z,99.90
2018-05-29T22:55:48.742Z,99.90
2018-05-29T22:58:16.442Z,99.90
2018-05-29T23:00:44.167Z,99.90
2018-05-29T23:03:11.871Z,99.90
2018-05-29T23:05:39.654Z,99.90
2018-05-29T23:08:07.349Z,99.90
2018-05-29T23:10:35.842Z,99.90
2018-05-29T23:13:03.571Z,99.90
2018-05-29T23:15:31.290Z,99.90
2018-05-29T23:17:59.006Z,99.90
2018-05-29T23:20:27.534Z,99.90
2018-05-29T23:22:55.671Z,99.90
2018-05-29T23:25:23.401Z,99.90
2018-05-29T23:27:51.127Z,99.90
2018-05-29T23:30:18.887Z,99.90
2018-05-29T23:32:47.344Z,99.90
2018-05-29T23:35:15.042Z,99.90
2018-05-29T23:37:42.762Z,99.90
2018-05-29T23:40:10.491Z,99.90
2018-05-29T23:42:38.219Z,99.90
2018-05-29T23:45:06.704Z,99.90
2018-05-29T23:47:34.498Z,99.90
2018-05-29T23:50:02.238Z,99.90
2018-05-29T23:52:30.696Z,99.90
2018-05-29T23:54:59.189Z,99.90
2018-05-29T23:57:27.136Z,99.90
2018-05-29T23:59:54.831Z,99.90
